KCID/CID METAR and TAF weather

Enter ICAO airport designator
Station Type Date Time Source
KCID METAR 2018/10/19 15:52 UTC NOAA

KCID 191552Z 20013KT 10SM OVC050 11/07 A2998 RMK AO2 RAB03E14B35E46 SLP155 P0000 T01060072


Station Type Date Time Source
KCID Decoded METAR 2018/10/19 15:52 UTC NOAA

CEDAR RAPIDS AIRPORT, IA, United States (KCID) 41-53N 91-43W
Oct 19, 2018 - 11:52 AM EDT / 2018.10.19 1552 UTC
Wind: from the SSW (200 degrees) at 15 MPH (13 KT):0
Visibility: 10 mile(s):0
Sky conditions: overcast
Precipitation last hour: A trace
Temperature: 51.1 F (10.6 C)
Dew Point: 45.0 F (7.2 C)
Relative Humidity: 79%
Pressure (altimeter): 29.98 in. Hg (1015 hPa)
ob: KCID 191552Z 20013KT 10SM OVC050 11/07 A2998 RMK AO2 RAB03E14B35E46 SLP155 P0000 T01060072
cycle: 16

Station Type Date Time Source
KCID TAF 2018/10/19 12:36 UTC NOAA

TAF KCID 191135Z 1912/2012 20009KT 6SM -SHRA BR OVC090
FM191500 21010KT 6SM BR OVC050
FM191700 22013KT P6SM VCSH OVC030
FM192100 26015KT P6SM BKN030
FM192200 27013KT P6SM SCT100


Example: see airport list